sensor_id;sensor_type;location;lat;lon;timestamp;P1;durP1;ratioP1;P2;durP2;ratioP2
55829;SDS011;41759;53.330;6.002;2024-02-14T00:02:11;15.43;;;7.55;;
55829;SDS011;41759;53.330;6.002;2024-02-14T00:04:37;11.55;;;6.97;;
55829;SDS011;41759;53.330;6.002;2024-02-14T00:07:04;11.70;;;6.95;;
55829;SDS011;41759;53.330;6.002;2024-02-14T00:09:30;10.18;;;6.10;;
55829;SDS011;41759;53.330;6.002;2024-02-14T00:11:56;12.27;;;7.78;;
55829;SDS011;41759;53.330;6.002;2024-02-14T00:14:22;14.68;;;7.68;;
55829;SDS011;41759;53.330;6.002;2024-02-14T00:16:48;10.55;;;7.03;;
55829;SDS011;41759;53.330;6.002;2024-02-14T00:19:13;11.85;;;6.97;;
55829;SDS011;41759;53.330;6.002;2024-02-14T00:21:39;14.02;;;7.47;;
55829;SDS011;41759;53.330;6.002;2024-02-14T00:24:05;15.35;;;7.97;;
55829;SDS011;41759;53.330;6.002;2024-02-14T00:26:31;10.65;;;7.20;;
55829;SDS011;41759;53.330;6.002;2024-02-14T00:28:57;13.45;;;7.22;;
55829;SDS011;41759;53.330;6.002;2024-02-14T00:31:22;12.15;;;7.32;;
55829;SDS011;41759;53.330;6.002;2024-02-14T00:33:48;15.88;;;7.97;;
55829;SDS011;41759;53.330;6.002;2024-02-14T00:36:14;13.35;;;7.25;;
55829;SDS011;41759;53.330;6.002;2024-02-14T00:38:40;11.77;;;7.00;;
55829;SDS011;41759;53.330;6.002;2024-02-14T00:41:05;12.20;;;6.80;;
55829;SDS011;41759;53.330;6.002;2024-02-14T00:43:31;14.45;;;7.22;;
55829;SDS011;41759;53.330;6.002;2024-02-14T00:45:57;16.20;;;7.93;;
55829;SDS011;41759;53.330;6.002;2024-02-14T00:48:23;12.32;;;7.50;;
55829;SDS011;41759;53.330;6.002;2024-02-14T00:50:49;11.35;;;7.13;;
55829;SDS011;41759;53.330;6.002;2024-02-14T00:53:14;11.20;;;6.80;;
55829;SDS011;41759;53.330;6.002;2024-02-14T00:55:40;11.98;;;7.25;;
55829;SDS011;41759;53.330;6.002;2024-02-14T00:58:06;11.85;;;7.03;;
55829;SDS011;41759;53.330;6.002;2024-02-14T01:00:32;10.30;;;6.38;;
55829;SDS011;41759;53.330;6.002;2024-02-14T01:02:58;11.18;;;6.97;;
55829;SDS011;41759;53.330;6.002;2024-02-14T01:05:24;12.75;;;7.18;;
55829;SDS011;41759;53.330;6.002;2024-02-14T01:07:50;11.63;;;7.88;;
55829;SDS011;41759;53.330;6.002;2024-02-14T01:10:16;11.52;;;6.72;;
55829;SDS011;41759;53.330;6.002;2024-02-14T01:19:12;8.27;;;6.00;;
55829;SDS011;41759;53.330;6.002;2024-02-14T01:21:39;9.30;;;6.72;;
55829;SDS011;41759;53.330;6.002;2024-02-14T01:24:04;9.75;;;6.63;;
55829;SDS011;41759;53.330;6.002;2024-02-14T01:26:31;12.00;;;6.78;;
55829;SDS011;41759;53.330;6.002;2024-02-14T01:28:57;9.57;;;6.90;;
55829;SDS011;41759;53.330;6.002;2024-02-14T01:31:25;11.27;;;7.30;;
55829;SDS011;41759;53.330;6.002;2024-02-14T01:33:50;10.82;;;7.25;;
55829;SDS011;41759;53.330;6.002;2024-02-14T01:36:16;10.75;;;6.65;;
55829;SDS011;41759;53.330;6.002;2024-02-14T01:38:42;11.23;;;7.03;;
55829;SDS011;41759;53.330;6.002;2024-02-14T01:41:08;9.77;;;6.43;;
55829;SDS011;41759;53.330;6.002;2024-02-14T01:43:33;10.57;;;6.50;;
55829;SDS011;41759;53.330;6.002;2024-02-14T01:46:03;9.93;;;6.28;;
55829;SDS011;41759;53.330;6.002;2024-02-14T01:48:30;10.80;;;7.05;;
55829;SDS011;41759;53.330;6.002;2024-02-14T01:50:56;10.70;;;6.60;;
55829;SDS011;41759;53.330;6.002;2024-02-14T01:53:23;11.57;;;7.47;;
55829;SDS011;41759;53.330;6.002;2024-02-14T01:55:50;11.07;;;7.35;;
55829;SDS011;41759;53.330;6.002;2024-02-14T01:58:16;13.77;;;7.35;;
55829;SDS011;41759;53.330;6.002;2024-02-14T02:00:43;10.35;;;6.60;;
55829;SDS011;41759;53.330;6.002;2024-02-14T02:03:09;11.20;;;6.78;;
55829;SDS011;41759;53.330;6.002;2024-02-14T02:05:35;12.93;;;6.93;;
55829;SDS011;41759;53.330;6.002;2024-02-14T02:08:01;11.23;;;6.90;;
55829;SDS011;41759;53.330;6.002;2024-02-14T02:10:27;11.32;;;7.07;;
55829;SDS011;41759;53.330;6.002;2024-02-14T02:12:57;11.18;;;6.97;;
55829;SDS011;41759;53.330;6.002;2024-02-14T02:15:25;11.25;;;7.55;;
55829;SDS011;41759;53.330;6.002;2024-02-14T02:17:51;12.43;;;7.68;;
55829;SDS011;41759;53.330;6.002;2024-02-14T02:20:18;13.65;;;7.32;;
55829;SDS011;41759;53.330;6.002;2024-02-14T02:22:46;11.88;;;7.15;;
55829;SDS011;41759;53.330;6.002;2024-02-14T02:25:13;13.35;;;8.30;;
55829;SDS011;41759;53.330;6.002;2024-02-14T02:27:38;11.57;;;7.03;;
55829;SDS011;41759;53.330;6.002;2024-02-14T02:30:05;11.15;;;7.20;;
55829;SDS011;41759;53.330;6.002;2024-02-14T02:32:31;11.73;;;7.28;;
55829;SDS011;41759;53.330;6.002;2024-02-14T02:34:57;11.68;;;7.00;;
55829;SDS011;41759;53.330;6.002;2024-02-14T02:37:23;11.20;;;6.65;;
55829;SDS011;41759;53.330;6.002;2024-02-14T02:39:50;13.02;;;7.00;;
55829;SDS011;41759;53.330;6.002;2024-02-14T02:42:16;11.27;;;6.38;;
55829;SDS011;41759;53.330;6.002;2024-02-14T02:44:45;13.50;;;7.60;;
55829;SDS011;41759;53.330;6.002;2024-02-14T02:47:12;12.07;;;6.72;;
55829;SDS011;41759;53.330;6.002;2024-02-14T02:49:38;12.15;;;6.70;;
55829;SDS011;41759;53.330;6.002;2024-02-14T02:52:04;12.10;;;7.38;;
55829;SDS011;41759;53.330;6.002;2024-02-14T02:54:29;14.27;;;7.10;;
55829;SDS011;41759;53.330;6.002;2024-02-14T02:56:55;12.27;;;7.18;;
55829;SDS011;41759;53.330;6.002;2024-02-14T02:59:21;12.15;;;7.35;;
55829;SDS011;41759;53.330;6.002;2024-02-14T03:01:47;12.93;;;7.28;;
55829;SDS011;41759;53.330;6.002;2024-02-14T03:04:14;12.27;;;7.10;;
55829;SDS011;41759;53.330;6.002;2024-02-14T03:06:40;13.38;;;7.57;;
55829;SDS011;41759;53.330;6.002;2024-02-14T03:09:08;12.57;;;7.90;;
55829;SDS011;41759;53.330;6.002;2024-02-14T03:11:34;13.10;;;8.20;;
55829;SDS011;41759;53.330;6.002;2024-02-14T03:14:02;14.57;;;8.25;;
55829;SDS011;41759;53.330;6.002;2024-02-14T03:16:27;16.77;;;7.35;;
55829;SDS011;41759;53.330;6.002;2024-02-14T03:18:54;13.75;;;7.70;;
55829;SDS011;41759;53.330;6.002;2024-02-14T03:21:20;14.23;;;7.50;;
55829;SDS011;41759;53.330;6.002;2024-02-14T03:23:45;13.13;;;6.97;;
55829;SDS011;41759;53.330;6.002;2024-02-14T03:26:11;12.95;;;6.88;;
55829;SDS011;41759;53.330;6.002;2024-02-14T03:28:37;11.45;;;6.57;;
55829;SDS011;41759;53.330;6.002;2024-02-14T03:31:02;11.00;;;5.93;;
55829;SDS011;41759;53.330;6.002;2024-02-14T03:33:29;10.00;;;5.68;;
55829;SDS011;41759;53.330;6.002;2024-02-14T03:35:55;10.00;;;6.03;;
55829;SDS011;41759;53.330;6.002;2024-02-14T03:38:24;9.88;;;5.40;;
55829;SDS011;41759;53.330;6.002;2024-02-14T03:40:53;9.25;;;5.00;;
55829;SDS011;41759;53.330;6.002;2024-02-14T03:43:19;11.20;;;5.30;;
55829;SDS011;41759;53.330;6.002;2024-02-14T03:45:45;10.00;;;5.45;;
55829;SDS011;41759;53.330;6.002;2024-02-14T03:48:11;9.93;;;5.53;;
55829;SDS011;41759;53.330;6.002;2024-02-14T03:50:40;9.32;;;5.30;;
55829;SDS011;41759;53.330;6.002;2024-02-14T03:53:08;10.60;;;5.22;;
55829;SDS011;41759;53.330;6.002;2024-02-14T03:55:36;10.98;;;5.97;;
55829;SDS011;41759;53.330;6.002;2024-02-14T03:58:02;13.35;;;5.18;;
55829;SDS011;41759;53.330;6.002;2024-02-14T04:00:30;10.63;;;5.65;;
55829;SDS011;41759;53.330;6.002;2024-02-14T04:02:56;14.43;;;5.35;;
55829;SDS011;41759;53.330;6.002;2024-02-14T04:05:25;12.30;;;4.95;;
55829;SDS011;41759;53.330;6.002;2024-02-14T04:07:54;12.02;;;4.72;;
55829;SDS011;41759;53.330;6.002;2024-02-14T04:10:20;11.95;;;5.03;;
55829;SDS011;41759;53.330;6.002;2024-02-14T04:12:46;10.35;;;4.55;;
55829;SDS011;41759;53.330;6.002;2024-02-14T04:15:12;11.13;;;4.25;;
55829;SDS011;41759;53.330;6.002;2024-02-14T04:17:41;8.55;;;4.53;;
55829;SDS011;41759;53.330;6.002;2024-02-14T04:20:07;12.65;;;4.72;;
55829;SDS011;41759;53.330;6.002;2024-02-14T04:22:33;9.75;;;4.18;;
55829;SDS011;41759;53.330;6.002;2024-02-14T04:24:59;8.50;;;3.95;;
55829;SDS011;41759;53.330;6.002;2024-02-14T04:27:25;11.07;;;4.10;;
55829;SDS011;41759;53.330;6.002;2024-02-14T04:29:50;9.38;;;4.75;;
55829;SDS011;41759;53.330;6.002;2024-02-14T04:32:16;11.38;;;4.28;;
55829;SDS011;41759;53.330;6.002;2024-02-14T04:34:42;9.25;;;4.30;;
55829;SDS011;41759;53.330;6.002;2024-02-14T04:37:08;11.35;;;4.32;;
55829;SDS011;41759;53.330;6.002;2024-02-14T04:39:41;10.45;;;4.70;;
55829;SDS011;41759;53.330;6.002;2024-02-14T04:42:07;18.27;;;4.35;;
55829;SDS011;41759;53.330;6.002;2024-02-14T04:44:33;11.45;;;4.70;;
55829;SDS011;41759;53.330;6.002;2024-02-14T04:47:02;9.80;;;4.97;;
55829;SDS011;41759;53.330;6.002;2024-02-14T04:49:28;14.75;;;4.63;;
55829;SDS011;41759;53.330;6.002;2024-02-14T04:51:56;14.00;;;5.45;;
55829;SDS011;41759;53.330;6.002;2024-02-14T04:54:23;13.55;;;4.63;;
55829;SDS011;41759;53.330;6.002;2024-02-14T04:56:48;19.05;;;5.43;;
55829;SDS011;41759;53.330;6.002;2024-02-14T04:59:14;14.07;;;5.43;;
55829;SDS011;41759;53.330;6.002;2024-02-14T05:01:40;19.02;;;6.18;;
55829;SDS011;41759;53.330;6.002;2024-02-14T05:04:06;20.08;;;6.10;;
55829;SDS011;41759;53.330;6.002;2024-02-14T05:06:34;12.48;;;5.30;;
55829;SDS011;41759;53.330;6.002;2024-02-14T05:09:01;14.75;;;5.75;;
55829;SDS011;41759;53.330;6.002;2024-02-14T05:11:27;16.08;;;6.00;;
55829;SDS011;41759;53.330;6.002;2024-02-14T05:13:52;16.08;;;6.25;;
55829;SDS011;41759;53.330;6.002;2024-02-14T05:16:18;14.98;;;5.85;;
55829;SDS011;41759;53.330;6.002;2024-02-14T05:18:44;18.42;;;6.38;;
55829;SDS011;41759;53.330;6.002;2024-02-14T05:21:10;16.92;;;5.35;;
55829;SDS011;41759;53.330;6.002;2024-02-14T05:23:36;24.08;;;6.05;;
55829;SDS011;41759;53.330;6.002;2024-02-14T05:26:02;17.20;;;5.68;;
55829;SDS011;41759;53.330;6.002;2024-02-14T05:28:28;19.77;;;6.30;;
55829;SDS011;41759;53.330;6.002;2024-02-14T05:30:55;17.77;;;5.10;;
55829;SDS011;41759;53.330;6.002;2024-02-14T05:33:21;18.13;;;5.18;;
55829;SDS011;41759;53.330;6.002;2024-02-14T05:35:50;15.90;;;3.80;;
55829;SDS011;41759;53.330;6.002;2024-02-14T05:38:16;14.50;;;4.10;;
55829;SDS011;41759;53.330;6.002;2024-02-14T05:40:47;7.97;;;2.90;;
55829;SDS011;41759;53.330;6.002;2024-02-14T05:43:14;11.52;;;3.20;;
55829;SDS011;41759;53.330;6.002;2024-02-14T05:45:40;10.85;;;3.30;;
55829;SDS011;41759;53.330;6.002;2024-02-14T05:48:06;9.55;;;3.60;;
55829;SDS011;41759;53.330;6.002;2024-02-14T05:50:32;8.68;;;3.15;;
55829;SDS011;41759;53.330;6.002;2024-02-14T05:52:58;12.05;;;4.22;;
55829;SDS011;41759;53.330;6.002;2024-02-14T05:55:24;11.02;;;3.88;;
55829;SDS011;41759;53.330;6.002;2024-02-14T05:57:53;13.93;;;4.18;;
55829;SDS011;41759;53.330;6.002;2024-02-14T06:00:19;20.88;;;4.20;;
55829;SDS011;41759;53.330;6.002;2024-02-14T06:02:48;15.57;;;4.03;;
55829;SDS011;41759;53.330;6.002;2024-02-14T06:05:14;18.55;;;5.05;;
55829;SDS011;41759;53.330;6.002;2024-02-14T06:07:40;26.75;;;4.80;;
55829;SDS011;41759;53.330;6.002;2024-02-14T06:10:07;17.05;;;4.93;;
55829;SDS011;41759;53.330;6.002;2024-02-14T06:12:33;26.20;;;5.20;;
55829;SDS011;41759;53.330;6.002;2024-02-14T06:15:00;23.33;;;4.25;;
55829;SDS011;41759;53.330;6.002;2024-02-14T06:17:26;32.30;;;5.82;;
55829;SDS011;41759;53.330;6.002;2024-02-14T06:19:52;33.70;;;4.78;;
55829;SDS011;41759;53.330;6.002;2024-02-14T06:22:18;35.95;;;6.20;;
55829;SDS011;41759;53.330;6.002;2024-02-14T06:24:45;27.25;;;5.25;;
55829;SDS011;41759;53.330;6.002;2024-02-14T06:27:13;36.90;;;5.32;;
55829;SDS011;41759;53.330;6.002;2024-02-14T06:29:41;21.73;;;5.20;;
55829;SDS011;41759;53.330;6.002;2024-02-14T06:32:07;28.52;;;4.60;;
55829;SDS011;41759;53.330;6.002;2024-02-14T06:34:33;28.45;;;4.05;;
55829;SDS011;41759;53.330;6.002;2024-02-14T06:36:59;26.92;;;4.35;;
55829;SDS011;41759;53.330;6.002;2024-02-14T06:39:25;29.50;;;3.90;;
55829;SDS011;41759;53.330;6.002;2024-02-14T06:41:50;23.95;;;3.90;;
55829;SDS011;41759;53.330;6.002;2024-02-14T06:44:16;30.10;;;4.65;;
55829;SDS011;41759;53.330;6.002;2024-02-14T06:46:43;25.70;;;4.38;;
55829;SDS011;41759;53.330;6.002;2024-02-14T06:49:09;26.30;;;3.83;;
55829;SDS011;41759;53.330;6.002;2024-02-14T06:51:35;36.30;;;3.97;;
55829;SDS011;41759;53.330;6.002;2024-02-14T06:54:00;39.00;;;5.53;;
55829;SDS011;41759;53.330;6.002;2024-02-14T06:56:29;29.45;;;3.97;;
55829;SDS011;41759;53.330;6.002;2024-02-14T06:58:55;37.30;;;4.43;;
55829;SDS011;41759;53.330;6.002;2024-02-14T07:01:25;42.33;;;3.83;;
55829;SDS011;41759;53.330;6.002;2024-02-14T07:03:52;36.83;;;5.85;;
55829;SDS011;41759;53.330;6.002;2024-02-14T07:06:18;28.35;;;4.50;;
55829;SDS011;41759;53.330;6.002;2024-02-14T07:08:43;32.15;;;4.47;;
55829;SDS011;41759;53.330;6.002;2024-02-14T07:11:09;42.22;;;4.97;;
55829;SDS011;41759;53.330;6.002;2024-02-14T07:13:36;47.65;;;4.30;;
55829;SDS011;41759;53.330;6.002;2024-02-14T07:16:02;40.92;;;5.22;;
55829;SDS011;41759;53.330;6.002;2024-02-14T07:18:27;29.80;;;4.38;;
55829;SDS011;41759;53.330;6.002;2024-02-14T07:20:53;34.22;;;4.35;;
55829;SDS011;41759;53.330;6.002;2024-02-14T07:23:19;34.85;;;5.07;;
55829;SDS011;41759;53.330;6.002;2024-02-14T07:25:45;35.55;;;4.90;;
55829;SDS011;41759;53.330;6.002;2024-02-14T07:28:11;35.20;;;4.30;;
55829;SDS011;41759;53.330;6.002;2024-02-14T07:30:37;24.80;;;3.67;;
55829;SDS011;41759;53.330;6.002;2024-02-14T07:33:03;33.13;;;5.50;;
55829;SDS011;41759;53.330;6.002;2024-02-14T07:35:29;49.80;;;4.65;;
55829;SDS011;41759;53.330;6.002;2024-02-14T07:37:55;33.80;;;4.60;;
55829;SDS011;41759;53.330;6.002;2024-02-14T07:40:21;39.15;;;4.97;;
55829;SDS011;41759;53.330;6.002;2024-02-14T07:42:47;34.45;;;4.45;;
55829;SDS011;41759;53.330;6.002;2024-02-14T07:45:13;35.55;;;4.75;;
55829;SDS011;41759;53.330;6.002;2024-02-14T07:47:39;28.65;;;4.82;;
55829;SDS011;41759;53.330;6.002;2024-02-14T07:50:05;29.63;;;4.25;;
55829;SDS011;41759;53.330;6.002;2024-02-14T07:52:32;40.20;;;5.10;;
55829;SDS011;41759;53.330;6.002;2024-02-14T07:54:58;35.80;;;5.00;;
55829;SDS011;41759;53.330;6.002;2024-02-14T07:57:24;27.70;;;4.18;;
55829;SDS011;41759;53.330;6.002;2024-02-14T07:59:50;42.25;;;4.40;;
55829;SDS011;41759;53.330;6.002;2024-02-14T08:02:17;30.08;;;4.13;;
55829;SDS011;41759;53.330;6.002;2024-02-14T08:04:45;31.13;;;3.95;;
55829;SDS011;41759;53.330;6.002;2024-02-14T08:07:11;36.97;;;5.07;;
55829;SDS011;41759;53.330;6.002;2024-02-14T08:09:37;39.10;;;4.47;;
55829;SDS011;41759;53.330;6.002;2024-02-14T08:12:04;38.40;;;4.53;;
55829;SDS011;41759;53.330;6.002;2024-02-14T08:14:30;28.98;;;4.40;;
55829;SDS011;41759;53.330;6.002;2024-02-14T08:16:56;38.13;;;5.72;;
55829;SDS011;41759;53.330;6.002;2024-02-14T08:19:22;36.33;;;6.00;;
55829;SDS011;41759;53.330;6.002;2024-02-14T08:21:48;44.17;;;6.22;;
55829;SDS011;41759;53.330;6.002;2024-02-14T08:24:13;28.67;;;5.15;;
55829;SDS011;41759;53.330;6.002;2024-02-14T08:26:39;31.17;;;4.82;;
55829;SDS011;41759;53.330;6.002;2024-02-14T08:29:05;25.10;;;4.28;;
55829;SDS011;41759;53.330;6.002;2024-02-14T08:31:30;40.20;;;5.53;;
55829;SDS011;41759;53.330;6.002;2024-02-14T08:33:57;36.65;;;6.57;;
55829;SDS011;41759;53.330;6.002;2024-02-14T08:36:23;43.35;;;5.65;;
55829;SDS011;41759;53.330;6.002;2024-02-14T08:38:50;23.08;;;5.05;;
55829;SDS011;41759;53.330;6.002;2024-02-14T08:41:15;22.98;;;5.47;;
55829;SDS011;41759;53.330;6.002;2024-02-14T08:43:43;31.50;;;4.97;;
55829;SDS011;41759;53.330;6.002;2024-02-14T08:46:09;28.80;;;4.43;;
55829;SDS011;41759;53.330;6.002;2024-02-14T08:48:36;34.42;;;5.13;;
55829;SDS011;41759;53.330;6.002;2024-02-14T08:51:07;21.23;;;5.38;;
55829;SDS011;41759;53.330;6.002;2024-02-14T08:53:34;32.58;;;5.13;;
55829;SDS011;41759;53.330;6.002;2024-02-14T08:56:01;37.38;;;5.72;;
55829;SDS011;41759;53.330;6.002;2024-02-14T08:58:26;32.22;;;5.55;;
55829;SDS011;41759;53.330;6.002;2024-02-14T09:00:52;30.02;;;5.53;;
55829;SDS011;41759;53.330;6.002;2024-02-14T09:03:18;24.75;;;5.60;;
55829;SDS011;41759;53.330;6.002;2024-02-14T09:05:44;29.88;;;5.75;;
55829;SDS011;41759;53.330;6.002;2024-02-14T09:08:11;24.38;;;6.25;;
55829;SDS011;41759;53.330;6.002;2024-02-14T09:10:38;28.88;;;5.47;;
55829;SDS011;41759;53.330;6.002;2024-02-14T09:13:04;19.42;;;4.90;;
55829;SDS011;41759;53.330;6.002;2024-02-14T09:15:32;24.42;;;6.05;;
55829;SDS011;41759;53.330;6.002;2024-02-14T09:17:58;25.85;;;5.88;;
55829;SDS011;41759;53.330;6.002;2024-02-14T09:20:25;22.98;;;5.18;;
55829;SDS011;41759;53.330;6.002;2024-02-14T09:22:51;31.45;;;4.90;;
55829;SDS011;41759;53.330;6.002;2024-02-14T09:25:18;32.03;;;6.97;;
55829;SDS011;41759;53.330;6.002;2024-02-14T09:27:44;38.00;;;6.15;;
55829;SDS011;41759;53.330;6.002;2024-02-14T09:30:12;37.40;;;6.47;;
55829;SDS011;41759;53.330;6.002;2024-02-14T09:32:38;29.88;;;6.05;;
55829;SDS011;41759;53.330;6.002;2024-02-14T09:35:03;33.75;;;6.20;;
55829;SDS011;41759;53.330;6.002;2024-02-14T09:37:32;31.83;;;6.45;;
55829;SDS011;41759;53.330;6.002;2024-02-14T09:39:58;22.67;;;5.95;;
55829;SDS011;41759;53.330;6.002;2024-02-14T09:42:38;28.95;;;6.07;;
55829;SDS011;41759;53.330;6.002;2024-02-14T09:45:08;30.60;;;7.05;;
55829;SDS011;41759;53.330;6.002;2024-02-14T09:47:34;27.02;;;7.45;;
55829;SDS011;41759;53.330;6.002;2024-02-14T09:50:02;35.92;;;6.65;;
55829;SDS011;41759;53.330;6.002;2024-02-14T09:52:31;26.65;;;5.43;;
55829;SDS011;41759;53.330;6.002;2024-02-14T09:54:58;23.30;;;5.78;;
55829;SDS011;41759;53.330;6.002;2024-02-14T09:57:24;26.00;;;5.13;;
55829;SDS011;41759;53.330;6.002;2024-02-14T09:59:51;27.88;;;5.70;;
55829;SDS011;41759;53.330;6.002;2024-02-14T10:02:19;21.55;;;5.57;;
55829;SDS011;41759;53.330;6.002;2024-02-14T10:04:45;24.05;;;5.07;;
55829;SDS011;41759;53.330;6.002;2024-02-14T10:07:11;34.35;;;5.75;;
55829;SDS011;41759;53.330;6.002;2024-02-14T10:09:40;18.73;;;4.82;;
55829;SDS011;41759;53.330;6.002;2024-02-14T10:12:07;19.40;;;4.68;;
55829;SDS011;41759;53.330;6.002;2024-02-14T10:14:34;24.40;;;5.32;;
55829;SDS011;41759;53.330;6.002;2024-02-14T10:17:01;23.48;;;4.85;;
55829;SDS011;41759;53.330;6.002;2024-02-14T10:19:28;19.05;;;4.90;;
55829;SDS011;41759;53.330;6.002;2024-02-14T10:21:57;23.13;;;4.82;;
55829;SDS011;41759;53.330;6.002;2024-02-14T10:24:24;15.02;;;3.97;;
55829;SDS011;41759;53.330;6.002;2024-02-14T10:26:51;13.32;;;4.57;;
55829;SDS011;41759;53.330;6.002;2024-02-14T10:29:18;15.90;;;4.45;;
55829;SDS011;41759;53.330;6.002;2024-02-14T10:31:48;17.00;;;4.60;;
55829;SDS011;41759;53.330;6.002;2024-02-14T10:34:14;17.67;;;4.50;;
55829;SDS011;41759;53.330;6.002;2024-02-14T10:36:40;18.00;;;4.45;;
55829;SDS011;41759;53.330;6.002;2024-02-14T10:39:09;13.10;;;4.00;;
55829;SDS011;41759;53.330;6.002;2024-02-14T10:41:36;14.77;;;4.18;;
55829;SDS011;41759;53.330;6.002;2024-02-14T10:44:05;16.45;;;5.10;;
55829;SDS011;41759;53.330;6.002;2024-02-14T10:46:35;13.00;;;5.13;;
55829;SDS011;41759;53.330;6.002;2024-02-14T10:49:05;15.82;;;4.68;;
55829;SDS011;41759;53.330;6.002;2024-02-14T10:51:32;18.15;;;5.65;;
55829;SDS011;41759;53.330;6.002;2024-02-14T10:54:03;16.25;;;5.05;;
55829;SDS011;41759;53.330;6.002;2024-02-14T10:56:34;16.83;;;5.28;;
55829;SDS011;41759;53.330;6.002;2024-02-14T10:59:03;20.35;;;5.93;;
55829;SDS011;41759;53.330;6.002;2024-02-14T11:01:30;19.08;;;5.60;;
55829;SDS011;41759;53.330;6.002;2024-02-14T11:04:00;20.73;;;5.07;;
55829;SDS011;41759;53.330;6.002;2024-02-14T11:06:29;17.83;;;5.95;;
55829;SDS011;41759;53.330;6.002;2024-02-14T11:09:04;13.27;;;5.18;;
55829;SDS011;41759;53.330;6.002;2024-02-14T11:11:32;22.45;;;5.60;;
55829;SDS011;41759;53.330;6.002;2024-02-14T11:13:59;18.50;;;5.15;;
55829;SDS011;41759;53.330;6.002;2024-02-14T11:16:25;23.75;;;5.15;;
55829;SDS011;41759;53.330;6.002;2024-02-14T11:19:10;22.63;;;5.07;;
55829;SDS011;41759;53.330;6.002;2024-02-14T11:21:41;19.10;;;4.82;;
55829;SDS011;41759;53.330;6.002;2024-02-14T11:24:14;11.98;;;4.05;;
55829;SDS011;41759;53.330;6.002;2024-02-14T11:29:15;17.38;;;4.55;;
55829;SDS011;41759;53.330;6.002;2024-02-14T11:31:42;20.63;;;4.10;;
55829;SDS011;41759;53.330;6.002;2024-02-14T11:34:08;10.40;;;4.68;;
55829;SDS011;41759;53.330;6.002;2024-02-14T11:36:36;13.82;;;3.60;;
55829;SDS011;41759;53.330;6.002;2024-02-14T11:39:03;13.50;;;3.70;;
55829;SDS011;41759;53.330;6.002;2024-02-14T11:41:33;10.50;;;3.38;;
55829;SDS011;41759;53.330;6.002;2024-02-14T11:44:02;11.43;;;3.85;;
55829;SDS011;41759;53.330;6.002;2024-02-14T11:46:32;10.80;;;5.72;;
55829;SDS011;41759;53.330;6.002;2024-02-14T11:48:59;13.98;;;3.55;;
55829;SDS011;41759;53.330;6.002;2024-02-14T11:51:30;10.77;;;3.92;;
55829;SDS011;41759;53.330;6.002;2024-02-14T11:53:58;10.85;;;3.40;;
55829;SDS011;41759;53.330;6.002;2024-02-14T11:56:36;11.10;;;3.15;;
55829;SDS011;41759;53.330;6.002;2024-02-14T11:59:04;17.23;;;3.75;;
55829;SDS011;41759;53.330;6.002;2024-02-14T12:01:33;13.18;;;4.22;;
55829;SDS011;41759;53.330;6.002;2024-02-14T12:04:00;14.38;;;3.55;;
55829;SDS011;41759;53.330;6.002;2024-02-14T12:06:27;10.85;;;3.67;;
55829;SDS011;41759;53.330;6.002;2024-02-14T12:08:54;12.88;;;4.35;;
55829;SDS011;41759;53.330;6.002;2024-02-14T12:11:21;10.00;;;3.50;;
55829;SDS011;41759;53.330;6.002;2024-02-14T12:13:50;14.27;;;3.58;;
55829;SDS011;41759;53.330;6.002;2024-02-14T12:16:19;11.75;;;3.42;;
55829;SDS011;41759;53.330;6.002;2024-02-14T12:18:46;13.80;;;3.40;;
55829;SDS011;41759;53.330;6.002;2024-02-14T12:21:11;12.35;;;3.53;;
55829;SDS011;41759;53.330;6.002;2024-02-14T12:23:38;13.65;;;3.65;;
55829;SDS011;41759;53.330;6.002;2024-02-14T12:26:03;14.73;;;4.45;;
55829;SDS011;41759;53.330;6.002;2024-02-14T12:28:30;12.73;;;4.38;;
55829;SDS011;41759;53.330;6.002;2024-02-14T12:30:57;9.23;;;3.83;;
55829;SDS011;41759;53.330;6.002;2024-02-14T12:33:26;13.00;;;4.57;;
55829;SDS011;41759;53.330;6.002;2024-02-14T12:35:53;8.07;;;3.40;;
55829;SDS011;41759;53.330;6.002;2024-02-14T12:38:21;9.18;;;3.58;;
55829;SDS011;41759;53.330;6.002;2024-02-14T12:40:50;14.23;;;4.55;;
55829;SDS011;41759;53.330;6.002;2024-02-14T12:43:19;11.43;;;4.97;;
55829;SDS011;41759;53.330;6.002;2024-02-14T12:45:45;11.10;;;4.97;;
55829;SDS011;41759;53.330;6.002;2024-02-14T12:48:11;14.70;;;5.80;;
55829;SDS011;41759;53.330;6.002;2024-02-14T12:50:38;11.82;;;5.78;;
55829;SDS011;41759;53.330;6.002;2024-02-14T12:53:05;14.32;;;6.20;;
55829;SDS011;41759;53.330;6.002;2024-02-14T12:55:32;15.52;;;6.45;;
55829;SDS011;41759;53.330;6.002;2024-02-14T12:57:58;14.10;;;6.70;;
55829;SDS011;41759;53.330;6.002;2024-02-14T13:00:24;19.25;;;7.68;;
55829;SDS011;41759;53.330;6.002;2024-02-14T13:02:50;16.95;;;8.68;;
55829;SDS011;41759;53.330;6.002;2024-02-14T13:05:16;20.73;;;8.35;;
55829;SDS011;41759;53.330;6.002;2024-02-14T13:07:42;16.70;;;8.57;;
55829;SDS011;41759;53.330;6.002;2024-02-14T13:10:08;19.25;;;8.43;;
55829;SDS011;41759;53.330;6.002;2024-02-14T13:12:40;16.92;;;7.78;;
55829;SDS011;41759;53.330;6.002;2024-02-14T13:15:05;21.20;;;7.68;;
55829;SDS011;41759;53.330;6.002;2024-02-14T13:17:32;17.30;;;7.80;;
55829;SDS011;41759;53.330;6.002;2024-02-14T13:19:58;21.70;;;8.40;;
55829;SDS011;41759;53.330;6.002;2024-02-14T13:22:26;19.50;;;8.02;;
55829;SDS011;41759;53.330;6.002;2024-02-14T13:24:52;20.85;;;7.47;;
55829;SDS011;41759;53.330;6.002;2024-02-14T13:27:18;21.60;;;6.95;;
55829;SDS011;41759;53.330;6.002;2024-02-14T13:29:46;20.83;;;7.75;;
55829;SDS011;41759;53.330;6.002;2024-02-14T13:32:13;17.33;;;7.93;;
55829;SDS011;41759;53.330;6.002;2024-02-14T13:34:38;19.45;;;6.90;;
55829;SDS011;41759;53.330;6.002;2024-02-14T13:37:04;16.05;;;6.82;;
55829;SDS011;41759;53.330;6.002;2024-02-14T13:39:30;15.32;;;7.55;;
55829;SDS011;41759;53.330;6.002;2024-02-14T13:41:56;17.05;;;6.50;;
55829;SDS011;41759;53.330;6.002;2024-02-14T13:44:24;17.90;;;6.03;;
55829;SDS011;41759;53.330;6.002;2024-02-14T13:46:50;20.48;;;6.10;;
55829;SDS011;41759;53.330;6.002;2024-02-14T13:49:17;11.68;;;4.90;;
55829;SDS011;41759;53.330;6.002;2024-02-14T13:51:47;17.15;;;5.03;;
55829;SDS011;41759;53.330;6.002;2024-02-14T13:54:13;11.32;;;4.30;;
55829;SDS011;41759;53.330;6.002;2024-02-14T13:56:39;14.60;;;4.43;;
55829;SDS011;41759;53.330;6.002;2024-02-14T13:59:05;14.25;;;4.97;;
55829;SDS011;41759;53.330;6.002;2024-02-14T14:01:31;14.82;;;4.00;;
55829;SDS011;41759;53.330;6.002;2024-02-14T14:03:57;12.43;;;4.30;;
55829;SDS011;41759;53.330;6.002;2024-02-14T14:06:23;10.90;;;3.75;;
55829;SDS011;41759;53.330;6.002;2024-02-14T14:08:49;14.38;;;3.95;;
55829;SDS011;41759;53.330;6.002;2024-02-14T14:11:15;13.82;;;3.42;;
55829;SDS011;41759;53.330;6.002;2024-02-14T14:13:41;9.55;;;3.70;;
55829;SDS011;41759;53.330;6.002;2024-02-14T14:16:07;10.65;;;3.58;;
55829;SDS011;41759;53.330;6.002;2024-02-14T14:18:33;8.60;;;3.70;;
55829;SDS011;41759;53.330;6.002;2024-02-14T14:21:00;6.40;;;2.80;;
55829;SDS011;41759;53.330;6.002;2024-02-14T14:23:26;6.82;;;3.00;;
55829;SDS011;41759;53.330;6.002;2024-02-14T14:25:51;6.85;;;3.10;;
55829;SDS011;41759;53.330;6.002;2024-02-14T14:28:17;5.90;;;2.97;;
55829;SDS011;41759;53.330;6.002;2024-02-14T14:30:49;5.95;;;2.97;;
55829;SDS011;41759;53.330;6.002;2024-02-14T14:33:21;6.13;;;2.95;;
55829;SDS011;41759;53.330;6.002;2024-02-14T14:35:47;6.30;;;2.70;;
55829;SDS011;41759;53.330;6.002;2024-02-14T14:38:18;5.95;;;3.03;;
55829;SDS011;41759;53.330;6.002;2024-02-14T14:40:45;12.45;;;3.22;;
55829;SDS011;41759;53.330;6.002;2024-02-14T14:43:11;6.63;;;2.90;;